sensor_id;sensor_type;location;lat;lon;timestamp;pressure;altitude;pressure_sealevel;temperature;humidity
84884;BME280;75145;49.188;8.122;2024-01-07T00:01:37;99452.97;;;5.17;84.65
84884;BME280;75145;49.188;8.122;2024-01-07T00:04:03;99446.25;;;5.13;84.70
84884;BME280;75145;49.188;8.122;2024-01-07T00:06:28;99450.94;;;5.22;84.54
84884;BME280;75145;49.188;8.122;2024-01-07T00:08:54;99450.31;;;5.31;84.46
84884;BME280;75145;49.188;8.122;2024-01-07T00:11:19;99449.69;;;5.28;84.06
84884;BME280;75145;49.188;8.122;2024-01-07T00:13:45;99458.47;;;5.27;84.23
84884;BME280;75145;49.188;8.122;2024-01-07T00:16:10;99456.25;;;5.21;84.14
84884;BME280;75145;49.188;8.122;2024-01-07T00:18:35;99454.13;;;5.13;84.44
84884;BME280;75145;49.188;8.122;2024-01-07T00:21:01;99453.91;;;5.16;84.41
84884;BME280;75145;49.188;8.122;2024-01-07T00:23:26;99461.50;;;5.21;83.89
84884;BME280;75145;49.188;8.122;2024-01-07T00:25:51;99459.91;;;5.18;84.45
84884;BME280;75145;49.188;8.122;2024-01-07T00:28:17;99461.78;;;5.16;84.25
84884;BME280;75145;49.188;8.122;2024-01-07T00:30:42;99463.47;;;5.17;83.86
84884;BME280;75145;49.188;8.122;2024-01-07T00:33:07;99463.66;;;5.14;83.41
84884;BME280;75145;49.188;8.122;2024-01-07T00:35:33;99461.13;;;5.13;84.65
84884;BME280;75145;49.188;8.122;2024-01-07T00:37:58;99464.03;;;5.08;84.09
84884;BME280;75145;49.188;8.122;2024-01-07T00:40:24;99451.13;;;5.05;83.65
84884;BME280;75145;49.188;8.122;2024-01-07T00:42:49;99472.19;;;5.03;83.83
84884;BME280;75145;49.188;8.122;2024-01-07T00:45:14;99465.06;;;5.06;83.96
84884;BME280;75145;49.188;8.122;2024-01-07T00:47:40;99467.59;;;5.07;84.26
84884;BME280;75145;49.188;8.122;2024-01-07T00:50:06;99470.81;;;4.98;84.26
84884;BME280;75145;49.188;8.122;2024-01-07T00:52:31;99473.69;;;4.93;84.37
84884;BME280;75145;49.188;8.122;2024-01-07T00:54:56;99469.88;;;4.99;83.59
84884;BME280;75145;49.188;8.122;2024-01-07T00:57:22;99480.06;;;5.03;83.66
84884;BME280;75145;49.188;8.122;2024-01-07T00:59:47;99475.09;;;4.99;84.13
84884;BME280;75145;49.188;8.122;2024-01-07T01:02:13;99478.84;;;4.95;84.21
84884;BME280;75145;49.188;8.122;2024-01-07T01:04:39;99481.84;;;5.03;84.38
84884;BME280;75145;49.188;8.122;2024-01-07T01:07:05;99478.06;;;5.07;84.08
84884;BME280;75145;49.188;8.122;2024-01-07T01:10:26;99483.91;;;4.98;84.45
84884;BME280;75145;49.188;8.122;2024-01-07T01:12:51;99489.06;;;4.99;84.40
84884;BME280;75145;49.188;8.122;2024-01-07T01:15:19;99489.69;;;5.03;84.19
84884;BME280;75145;49.188;8.122;2024-01-07T01:17:44;99493.63;;;5.10;84.44
84884;BME280;75145;49.188;8.122;2024-01-07T01:20:10;99492.31;;;5.03;83.67
84884;BME280;75145;49.188;8.122;2024-01-07T01:22:35;99492.50;;;5.00;84.36
84884;BME280;75145;49.188;8.122;2024-01-07T01:25:01;99494.84;;;5.05;84.34
84884;BME280;75145;49.188;8.122;2024-01-07T01:27:27;99494.41;;;4.98;84.37
84884;BME280;75145;49.188;8.122;2024-01-07T01:29:52;99504.69;;;5.01;84.11
84884;BME280;75145;49.188;8.122;2024-01-07T01:32:18;99500.38;;;5.00;84.32
84884;BME280;75145;49.188;8.122;2024-01-07T01:34:44;99500.72;;;5.08;84.09
84884;BME280;75145;49.188;8.122;2024-01-07T01:37:09;99507.00;;;5.06;83.83
84884;BME280;75145;49.188;8.122;2024-01-07T01:39:34;99498.59;;;5.00;84.46
84884;BME280;75145;49.188;8.122;2024-01-07T01:42:00;99502.59;;;5.06;84.17
84884;BME280;75145;49.188;8.122;2024-01-07T01:44:25;99496.06;;;4.99;84.35
84884;BME280;75145;49.188;8.122;2024-01-07T01:46:53;99504.03;;;4.97;84.85
84884;BME280;75145;49.188;8.122;2024-01-07T01:49:19;99493.66;;;4.96;84.67
84884;BME280;75145;49.188;8.122;2024-01-07T01:51:45;99502.72;;;4.90;85.04
84884;BME280;75145;49.188;8.122;2024-01-07T01:54:10;99505.78;;;4.83;85.60
84884;BME280;75145;49.188;8.122;2024-01-07T01:56:36;99502.06;;;4.87;85.43
84884;BME280;75145;49.188;8.122;2024-01-07T01:59:01;99498.03;;;4.81;85.12
84884;BME280;75145;49.188;8.122;2024-01-07T02:01:27;99497.19;;;4.81;84.90
84884;BME280;75145;49.188;8.122;2024-01-07T02:03:53;99497.94;;;4.83;86.29
84884;BME280;75145;49.188;8.122;2024-01-07T02:06:20;99509.63;;;4.91;85.28
84884;BME280;75145;49.188;8.122;2024-01-07T02:08:46;99501.44;;;4.83;85.38
84884;BME280;75145;49.188;8.122;2024-01-07T02:11:18;99498.50;;;4.88;85.02
84884;BME280;75145;49.188;8.122;2024-01-07T02:13:43;99497.47;;;4.90;84.74
84884;BME280;75145;49.188;8.122;2024-01-07T02:16:09;99507.31;;;4.87;85.38
84884;BME280;75145;49.188;8.122;2024-01-07T02:18:34;99503.28;;;4.81;85.06
84884;BME280;75145;49.188;8.122;2024-01-07T02:21:00;99501.44;;;4.83;84.92
84884;BME280;75145;49.188;8.122;2024-01-07T02:23:25;99507.41;;;4.85;84.89
84884;BME280;75145;49.188;8.122;2024-01-07T02:25:50;99510.88;;;4.86;85.18
84884;BME280;75145;49.188;8.122;2024-01-07T02:28:16;99511.91;;;4.83;85.22
84884;BME280;75145;49.188;8.122;2024-01-07T02:30:41;99509.00;;;4.88;85.07
84884;BME280;75145;49.188;8.122;2024-01-07T02:33:06;99510.78;;;4.87;84.93
84884;BME280;75145;49.188;8.122;2024-01-07T02:35:32;99507.22;;;4.88;84.78
84884;BME280;75145;49.188;8.122;2024-01-07T02:37:57;99514.44;;;4.85;85.37
84884;BME280;75145;49.188;8.122;2024-01-07T02:40:22;99514.59;;;4.82;85.23
84884;BME280;75145;49.188;8.122;2024-01-07T02:42:48;99497.69;;;4.73;84.81
84884;BME280;75145;49.188;8.122;2024-01-07T02:45:13;99502.06;;;4.72;85.27
84884;BME280;75145;49.188;8.122;2024-01-07T02:47:38;99507.66;;;4.66;85.66
84884;BME280;75145;49.188;8.122;2024-01-07T02:50:04;99516.56;;;4.64;85.97
84884;BME280;75145;49.188;8.122;2024-01-07T02:52:29;99506.09;;;4.64;85.54
84884;BME280;75145;49.188;8.122;2024-01-07T02:54:55;99506.72;;;4.67;85.53
84884;BME280;75145;49.188;8.122;2024-01-07T02:57:20;99508.41;;;4.68;85.76
84884;BME280;75145;49.188;8.122;2024-01-07T02:59:46;99508.78;;;4.62;85.31
84884;BME280;75145;49.188;8.122;2024-01-07T03:02:11;99510.66;;;4.60;85.79
84884;BME280;75145;49.188;8.122;2024-01-07T03:04:36;99513.44;;;4.57;85.66
84884;BME280;75145;49.188;8.122;2024-01-07T03:07:02;99518.44;;;4.62;86.51
84884;BME280;75145;49.188;8.122;2024-01-07T03:09:27;99513.84;;;4.65;85.36
84884;BME280;75145;49.188;8.122;2024-01-07T03:11:53;99514.78;;;4.64;85.53
84884;BME280;75145;49.188;8.122;2024-01-07T03:14:19;99520.94;;;4.63;85.93
84884;BME280;75145;49.188;8.122;2024-01-07T03:16:46;99522.19;;;4.58;85.83
84884;BME280;75145;49.188;8.122;2024-01-07T03:19:11;99526.47;;;4.59;86.33
84884;BME280;75145;49.188;8.122;2024-01-07T03:21:37;99526.81;;;4.53;85.91
84884;BME280;75145;49.188;8.122;2024-01-07T03:24:02;99524.41;;;4.50;86.13
84884;BME280;75145;49.188;8.122;2024-01-07T03:26:30;99525.88;;;4.54;86.16
84884;BME280;75145;49.188;8.122;2024-01-07T03:28:57;99526.72;;;4.54;86.06
84884;BME280;75145;49.188;8.122;2024-01-07T03:31:25;99532.81;;;4.55;85.65
84884;BME280;75145;49.188;8.122;2024-01-07T03:33:50;99528.69;;;4.51;85.94
84884;BME280;75145;49.188;8.122;2024-01-07T03:36:16;99535.19;;;4.59;86.20
84884;BME280;75145;49.188;8.122;2024-01-07T03:38:41;99540.41;;;4.59;85.87
84884;BME280;75145;49.188;8.122;2024-01-07T03:41:07;99534.59;;;4.54;85.82
84884;BME280;75145;49.188;8.122;2024-01-07T03:43:33;99529.53;;;4.51;85.80
84884;BME280;75145;49.188;8.122;2024-01-07T03:45:58;99528.78;;;4.49;85.73
84884;BME280;75145;49.188;8.122;2024-01-07T03:48:24;99530.28;;;4.53;85.83
84884;BME280;75145;49.188;8.122;2024-01-07T03:50:49;99537.59;;;4.48;85.91
84884;BME280;75145;49.188;8.122;2024-01-07T03:53:15;99534.69;;;4.53;86.03
84884;BME280;75145;49.188;8.122;2024-01-07T03:55:41;99535.91;;;4.47;86.11
84884;BME280;75145;49.188;8.122;2024-01-07T03:58:06;99540.75;;;4.53;85.59
84884;BME280;75145;49.188;8.122;2024-01-07T04:00:32;99536.56;;;4.51;85.84
84884;BME280;75145;49.188;8.122;2024-01-07T04:02:58;99541.03;;;4.49;86.33
84884;BME280;75145;49.188;8.122;2024-01-07T04:05:23;99534.69;;;4.53;86.00
84884;BME280;75145;49.188;8.122;2024-01-07T04:07:49;99546.09;;;4.52;86.37
84884;BME280;75145;49.188;8.122;2024-01-07T04:10:17;99551.53;;;4.49;85.97
84884;BME280;75145;49.188;8.122;2024-01-07T04:12:43;99546.38;;;4.47;86.26
84884;BME280;75145;49.188;8.122;2024-01-07T04:15:09;99553.75;;;4.55;86.11
84884;BME280;75145;49.188;8.122;2024-01-07T04:17:35;99547.50;;;4.57;85.88
84884;BME280;75145;49.188;8.122;2024-01-07T04:20:00;99552.91;;;4.54;85.52
84884;BME280;75145;49.188;8.122;2024-01-07T04:22:25;99560.78;;;4.54;85.94
84884;BME280;75145;49.188;8.122;2024-01-07T04:24:50;99565.44;;;4.49;85.61
84884;BME280;75145;49.188;8.122;2024-01-07T04:27:16;99559.56;;;4.46;86.32
84884;BME280;75145;49.188;8.122;2024-01-07T04:29:41;99565.13;;;4.39;86.11
84884;BME280;75145;49.188;8.122;2024-01-07T04:32:06;99562.34;;;4.42;86.09
84884;BME280;75145;49.188;8.122;2024-01-07T04:34:32;99557.00;;;4.44;86.40
84884;BME280;75145;49.188;8.122;2024-01-07T04:36:57;99562.44;;;4.41;86.55
84884;BME280;75145;49.188;8.122;2024-01-07T04:39:22;99561.69;;;4.39;87.39
84884;BME280;75145;49.188;8.122;2024-01-07T04:41:48;99559.91;;;4.39;87.04
84884;BME280;75145;49.188;8.122;2024-01-07T04:44:13;99560.75;;;4.40;87.63
84884;BME280;75145;49.188;8.122;2024-01-07T04:46:39;99555.88;;;4.34;87.11
84884;BME280;75145;49.188;8.122;2024-01-07T04:49:05;99567.66;;;4.41;87.09
84884;BME280;75145;49.188;8.122;2024-01-07T04:51:31;99562.63;;;4.38;86.79
84884;BME280;75145;49.188;8.122;2024-01-07T04:53:56;99566.16;;;4.37;86.90
84884;BME280;75145;49.188;8.122;2024-01-07T04:56:21;99568.88;;;4.35;87.16
84884;BME280;75145;49.188;8.122;2024-01-07T04:58:47;99573.13;;;4.52;87.17
84884;BME280;75145;49.188;8.122;2024-01-07T05:01:12;99574.44;;;4.45;86.89
84884;BME280;75145;49.188;8.122;2024-01-07T05:03:37;99578.13;;;4.41;86.46
84884;BME280;75145;49.188;8.122;2024-01-07T05:06:03;99584.97;;;4.43;86.31
84884;BME280;75145;49.188;8.122;2024-01-07T05:08:29;99588.78;;;4.38;86.25
84884;BME280;75145;49.188;8.122;2024-01-07T05:10:54;99592.34;;;4.37;86.04
84884;BME280;75145;49.188;8.122;2024-01-07T05:13:20;99584.81;;;4.31;86.53
84884;BME280;75145;49.188;8.122;2024-01-07T05:15:45;99601.13;;;4.36;86.66
84884;BME280;75145;49.188;8.122;2024-01-07T05:18:12;99591.75;;;4.32;86.72
84884;BME280;75145;49.188;8.122;2024-01-07T05:20:37;99603.00;;;4.34;86.65
84884;BME280;75145;49.188;8.122;2024-01-07T05:23:03;99607.31;;;4.35;86.16
84884;BME280;75145;49.188;8.122;2024-01-07T05:25:28;99595.56;;;4.26;86.75
84884;BME280;75145;49.188;8.122;2024-01-07T05:27:53;99604.84;;;4.32;86.59
84884;BME280;75145;49.188;8.122;2024-01-07T05:30:19;99586.31;;;4.21;85.98
84884;BME280;75145;49.188;8.122;2024-01-07T05:32:44;99605.03;;;4.29;86.24
84884;BME280;75145;49.188;8.122;2024-01-07T05:35:09;99608.16;;;4.35;86.50
84884;BME280;75145;49.188;8.122;2024-01-07T05:37:35;99600.47;;;4.32;85.96
84884;BME280;75145;49.188;8.122;2024-01-07T05:40:00;99610.06;;;4.32;86.11
84884;BME280;75145;49.188;8.122;2024-01-07T05:42:26;99617.88;;;4.33;86.59
84884;BME280;75145;49.188;8.122;2024-01-07T05:45:38;99613.63;;;4.31;86.49
84884;BME280;75145;49.188;8.122;2024-01-07T05:48:03;99620.91;;;4.26;86.69
84884;BME280;75145;49.188;8.122;2024-01-07T05:50:29;99625.22;;;4.27;86.54
84884;BME280;75145;49.188;8.122;2024-01-07T05:52:54;99624.88;;;4.33;85.76
84884;BME280;75145;49.188;8.122;2024-01-07T05:55:19;99631.00;;;4.32;86.11
84884;BME280;75145;49.188;8.122;2024-01-07T05:57:45;99625.97;;;4.29;86.43
84884;BME280;75145;49.188;8.122;2024-01-07T06:00:10;99631.19;;;4.29;86.15
84884;BME280;75145;49.188;8.122;2024-01-07T06:02:38;99632.13;;;4.28;86.21
84884;BME280;75145;49.188;8.122;2024-01-07T06:05:03;99632.78;;;4.31;85.99
84884;BME280;75145;49.188;8.122;2024-01-07T06:07:29;99627.00;;;4.26;86.07
84884;BME280;75145;49.188;8.122;2024-01-07T06:09:54;99636.19;;;4.33;85.82
84884;BME280;75145;49.188;8.122;2024-01-07T06:12:20;99636.72;;;4.54;85.02
84884;BME280;75145;49.188;8.122;2024-01-07T06:14:45;99632.44;;;4.67;84.44
84884;BME280;75145;49.188;8.122;2024-01-07T06:17:10;99626.47;;;4.65;83.85
84884;BME280;75145;49.188;8.122;2024-01-07T06:19:36;99630.25;;;4.76;83.96
84884;BME280;75145;49.188;8.122;2024-01-07T06:22:01;99630.56;;;4.69;84.33
84884;BME280;75145;49.188;8.122;2024-01-07T06:24:27;99636.00;;;4.66;83.97
84884;BME280;75145;49.188;8.122;2024-01-07T06:26:52;99649.09;;;4.66;84.45
84884;BME280;75145;49.188;8.122;2024-01-07T06:29:17;99648.06;;;4.99;83.76
84884;BME280;75145;49.188;8.122;2024-01-07T06:31:44;99642.03;;;4.83;83.96
84884;BME280;75145;49.188;8.122;2024-01-07T06:34:10;99636.75;;;4.68;84.06
84884;BME280;75145;49.188;8.122;2024-01-07T06:36:38;99650.03;;;4.65;84.32
84884;BME280;75145;49.188;8.122;2024-01-07T06:39:04;99662.00;;;4.69;84.25
84884;BME280;75145;49.188;8.122;2024-01-07T06:41:30;99656.78;;;4.69;84.90
84884;BME280;75145;49.188;8.122;2024-01-07T06:43:55;99665.28;;;4.59;85.53
84884;BME280;75145;49.188;8.122;2024-01-07T06:46:22;99666.47;;;4.53;86.20
84884;BME280;75145;49.188;8.122;2024-01-07T06:48:47;99664.19;;;4.47;86.68
84884;BME280;75145;49.188;8.122;2024-01-07T06:51:14;99676.78;;;4.40;86.59
84884;BME280;75145;49.188;8.122;2024-01-07T06:53:39;99675.94;;;4.40;87.28
84884;BME280;75145;49.188;8.122;2024-01-07T06:56:05;99682.03;;;4.40;86.92
84884;BME280;75145;49.188;8.122;2024-01-07T06:58:30;99684.72;;;4.39;87.03
84884;BME280;75145;49.188;8.122;2024-01-07T07:00:57;99696.97;;;4.38;87.58
84884;BME280;75145;49.188;8.122;2024-01-07T07:03:23;99687.25;;;4.40;87.12
84884;BME280;75145;49.188;8.122;2024-01-07T07:05:48;99692.16;;;4.31;87.35
84884;BME280;75145;49.188;8.122;2024-01-07T07:08:13;99702.97;;;4.25;88.31
84884;BME280;75145;49.188;8.122;2024-01-07T07:10:39;99702.47;;;4.34;88.02
84884;BME280;75145;49.188;8.122;2024-01-07T07:13:04;99707.19;;;4.27;87.72
84884;BME280;75145;49.188;8.122;2024-01-07T07:15:29;99711.59;;;4.27;88.17
84884;BME280;75145;49.188;8.122;2024-01-07T07:17:55;99714.78;;;4.32;88.08
84884;BME280;75145;49.188;8.122;2024-01-07T07:20:21;99719.19;;;4.31;88.02
84884;BME280;75145;49.188;8.122;2024-01-07T07:22:46;99715.13;;;4.26;87.69
84884;BME280;75145;49.188;8.122;2024-01-07T07:25:11;99716.66;;;4.30;87.66
84884;BME280;75145;49.188;8.122;2024-01-07T07:27:37;99733.47;;;4.26;87.55
84884;BME280;75145;49.188;8.122;2024-01-07T07:30:04;99727.13;;;4.30;87.66
84884;BME280;75145;49.188;8.122;2024-01-07T07:32:29;99730.16;;;4.38;87.25
84884;BME280;75145;49.188;8.122;2024-01-07T07:34:54;99731.38;;;4.32;86.89
84884;BME280;75145;49.188;8.122;2024-01-07T07:37:20;99742.31;;;4.39;87.27
84884;BME280;75145;49.188;8.122;2024-01-07T07:39:45;99732.44;;;4.28;87.32
84884;BME280;75145;49.188;8.122;2024-01-07T07:42:10;99742.69;;;4.33;87.49
84884;BME280;75145;49.188;8.122;2024-01-07T07:44:36;99744.28;;;4.35;87.29
84884;BME280;75145;49.188;8.122;2024-01-07T07:47:02;99745.13;;;4.36;87.59
84884;BME280;75145;49.188;8.122;2024-01-07T07:49:27;99745.03;;;4.37;87.41
84884;BME280;75145;49.188;8.122;2024-01-07T07:51:52;99746.91;;;4.35;88.04
84884;BME280;75145;49.188;8.122;2024-01-07T07:54:18;99751.28;;;4.35;87.92
84884;BME280;75145;49.188;8.122;2024-01-07T07:56:43;99744.28;;;4.20;88.37
84884;BME280;75145;49.188;8.122;2024-01-07T07:59:08;99762.84;;;4.31;88.43
84884;BME280;75145;49.188;8.122;2024-01-07T08:01:34;99744.38;;;4.34;88.46
84884;BME280;75145;49.188;8.122;2024-01-07T08:03:59;99756.53;;;4.35;88.28
84884;BME280;75145;49.188;8.122;2024-01-07T08:06:25;99746.63;;;4.24;88.12
84884;BME280;75145;49.188;8.122;2024-01-07T08:08:50;99763.75;;;4.30;88.76
84884;BME280;75145;49.188;8.122;2024-01-07T08:11:15;99761.66;;;4.36;87.94
84884;BME280;75145;49.188;8.122;2024-01-07T08:13:41;99765.44;;;4.31;87.52
84884;BME280;75145;49.188;8.122;2024-01-07T08:16:06;99765.81;;;4.25;88.21
84884;BME280;75145;49.188;8.122;2024-01-07T08:18:32;99768.84;;;4.33;88.22
84884;BME280;75145;49.188;8.122;2024-01-07T08:20:58;99775.59;;;4.37;87.66
84884;BME280;75145;49.188;8.122;2024-01-07T08:23:26;99764.59;;;4.30;87.76
84884;BME280;75145;49.188;8.122;2024-01-07T08:25:51;99769.69;;;4.33;87.03
84884;BME280;75145;49.188;8.122;2024-01-07T08:28:17;99778.41;;;4.34;87.04
84884;BME280;75145;49.188;8.122;2024-01-07T08:30:43;99765.53;;;4.29;86.99
84884;BME280;75145;49.188;8.122;2024-01-07T08:33:10;99777.88;;;4.27;86.52
84884;BME280;75145;49.188;8.122;2024-01-07T08:35:35;99777.78;;;4.29;87.21
84884;BME280;75145;49.188;8.122;2024-01-07T08:38:00;99781.34;;;4.28;87.00
84884;BME280;75145;49.188;8.122;2024-01-07T08:40:26;99783.19;;;4.26;86.91
84884;BME280;75145;49.188;8.122;2024-01-07T08:42:51;99792.41;;;4.33;87.36
84884;BME280;75145;49.188;8.122;2024-01-07T08:45:16;99796.19;;;4.27;87.43
84884;BME280;75145;49.188;8.122;2024-01-07T08:47:42;99796.19;;;4.27;87.94
84884;BME280;75145;49.188;8.122;2024-01-07T08:50:07;99796.19;;;4.27;87.06
84884;BME280;75145;49.188;8.122;2024-01-07T08:52:33;99800.09;;;4.20;87.32
84884;BME280;75145;49.188;8.122;2024-01-07T08:55:01;99805.47;;;4.17;87.49
84884;BME280;75145;49.188;8.122;2024-01-07T08:57:26;99802.84;;;4.17;86.94
84884;BME280;75145;49.188;8.122;2024-01-07T08:59:51;99817.63;;;4.18;87.28
84884;BME280;75145;49.188;8.122;2024-01-07T09:02:17;99809.53;;;4.23;86.98
84884;BME280;75145;49.188;8.122;2024-01-07T09:04:43;99818.47;;;4.19;87.03
84884;BME280;75145;49.188;8.122;2024-01-07T09:07:08;99819.84;;;4.26;87.62
84884;BME280;75145;49.188;8.122;2024-01-07T09:09:33;99818.31;;;4.22;86.95
84884;BME280;75145;49.188;8.122;2024-01-07T09:11:59;99824.03;;;4.12;86.76
84884;BME280;75145;49.188;8.122;2024-01-07T09:14:25;99829.09;;;4.16;86.67
84884;BME280;75145;49.188;8.122;2024-01-07T09:16:51;99826.41;;;4.17;86.41
84884;BME280;75145;49.188;8.122;2024-01-07T09:19:16;99834.34;;;4.16;86.24
84884;BME280;75145;49.188;8.122;2024-01-07T09:21:42;99828.25;;;4.15;86.63
84884;BME280;75145;49.188;8.122;2024-01-07T09:24:09;99831.13;;;4.10;86.49
84884;BME280;75145;49.188;8.122;2024-01-07T09:26:34;99846.84;;;4.10;86.57
84884;BME280;75145;49.188;8.122;2024-01-07T09:28:59;99842.19;;;4.16;86.28
84884;BME280;75145;49.188;8.122;2024-01-07T09:31:25;99839.50;;;4.17;86.14
84884;BME280;75145;49.188;8.122;2024-01-07T09:33:50;99850.03;;;4.16;86.41
84884;BME280;75145;49.188;8.122;2024-01-07T09:36:15;99842.72;;;4.22;86.20
84884;BME280;75145;49.188;8.122;2024-01-07T09:38:41;99854.22;;;4.20;85.41
84884;BME280;75145;49.188;8.122;2024-01-07T09:41:07;99849.72;;;4.22;85.42
84884;BME280;75145;49.188;8.122;2024-01-07T09:43:32;99850.03;;;4.16;85.26
84884;BME280;75145;49.188;8.122;2024-01-07T09:45:59;99856.19;;;4.14;84.89
84884;BME280;75145;49.188;8.122;2024-01-07T09:48:24;99857.13;;;4.13;85.23
84884;BME280;75145;49.188;8.122;2024-01-07T09:50:51;99859.50;;;4.18;85.17
84884;BME280;75145;49.188;8.122;2024-01-07T09:53:19;99839.75;;;4.12;85.24
84884;BME280;75145;49.188;8.122;2024-01-07T09:56:19;99863.41;;;4.27;85.30
84884;BME280;75145;49.188;8.122;2024-01-07T09:58:45;99846.34;;;4.20;85.20
84884;BME280;75145;49.188;8.122;2024-01-07T10:01:17;99848.72;;;4.24;84.72
84884;BME280;75145;49.188;8.122;2024-01-07T10:03:43;99857.41;;;4.25;84.94
84884;BME280;75145;49.188;8.122;2024-01-07T10:06:10;99856.31;;;4.29;84.31
84884;BME280;75145;49.188;8.122;2024-01-07T10:08:36;99856.31;;;4.29;84.26
84884;BME280;75145;49.188;8.122;2024-01-07T10:11:01;99862.66;;;4.25;84.34
84884;BME280;75145;49.188;8.122;2024-01-07T10:13:27;99855.56;;;4.27;84.10
84884;BME280;75145;49.188;8.122;2024-01-07T10:15:53;99852.63;;;4.33;83.34
84884;BME280;75145;49.188;8.122;2024-01-07T10:18:18;99849.81;;;4.20;83.33
84884;BME280;75145;49.188;8.122;2024-01-07T10:20:43;99861.03;;;4.22;82.47
84884;BME280;75145;49.188;8.122;2024-01-07T10:23:09;99858.00;;;4.30;83.13
84884;BME280;75145;49.188;8.122;2024-01-07T10:25:35;99860.53;;;4.31;82.28
84884;BME280;75145;49.188;8.122;2024-01-07T10:28:02;99856.66;;;4.23;82.24
84884;BME280;75145;49.188;8.122;2024-01-07T10:30:28;99861.72;;;4.26;82.80
84884;BME280;75145;49.188;8.122;2024-01-07T10:33:00;99867.13;;;4.23;82.31
84884;BME280;75145;49.188;8.122;2024-01-07T10:35:33;99865.44;;;4.22;81.54
84884;BME280;75145;49.188;8.122;2024-01-07T10:37:59;99874.22;;;4.21;81.44
84884;BME280;75145;49.188;8.122;2024-01-07T10:40:27;99871.31;;;4.09;80.16
84884;BME280;75145;49.188;8.122;2024-01-07T10:42:53;99875.31;;;3.99;80.19
84884;BME280;75145;49.188;8.122;2024-01-07T10:45:32;99880.09;;;3.91;80.89
84884;BME280;75145;49.188;8.122;2024-01-07T10:47:59;99871.78;;;4.00;80.51
84884;BME280;75145;49.188;8.122;2024-01-07T10:50:29;99881.41;;;4.00;80.65
84884;BME280;75145;49.188;8.122;2024-01-07T10:53:05;99875.78;;;4.07;81.01
84884;BME280;75145;49.188;8.122;2024-01-07T10:55:34;99881.91;;;4.06;80.34
84884;BME280;75145;49.188;8.122;2024-01-07T10:58:03;99883.78;;;4.04;79.83
84884;BME280;75145;49.188;8.122;2024-01-07T11:00:29;99885.31;;;3.91;78.74
84884;BME280;75145;49.188;8.122;2024-01-07T11:03:17;99884.72;;;3.86;79.27
84884;BME280;75145;49.188;8.122;2024-01-07T11:10:48;99890.88;;;3.85;78.11
84884;BME280;75145;49.188;8.122;2024-01-07T11:15:58;99890.03;;;3.84;78.00
84884;BME280;75145;49.188;8.122;2024-01-07T11:18:26;99895.34;;;3.83;77.58
84884;BME280;75145;49.188;8.122;2024-01-07T11:20:58;99902.03;;;3.89;77.01
84884;BME280;75145;49.188;8.122;2024-01-07T11:23:34;99891.66;;;3.87;77.44
84884;BME280;75145;49.188;8.122;2024-01-07T11:26:05;99901.66;;;3.96;76.92
84884;BME280;75145;49.188;8.122;2024-01-07T11:28:50;99901.66;;;3.96;76.50
84884;BME280;75145;49.188;8.122;2024-01-07T11:31:20;99905.13;;;3.97;76.23
84884;BME280;75145;49.188;8.122;2024-01-07T11:33:49;99909.34;;;3.99;76.15
84884;BME280;75145;49.188;8.122;2024-01-07T11:36:18;99913.66;;;4.00;76.71
84884;BME280;75145;49.188;8.122;2024-01-07T11:38:44;99908.75;;;3.94;76.21
84884;BME280;75145;49.188;8.122;2024-01-07T11:41:12;99908.09;;;3.89;76.29
84884;BME280;75145;49.188;8.122;2024-01-07T11:43:38;99914.34;;;3.87;75.60
84884;BME280;75145;49.188;8.122;2024-01-07T11:46:16;99898.09;;;3.80;75.80
84884;BME280;75145;49.188;8.122;2024-01-07T11:48:45;99902.06;;;3.71;76.26
84884;BME280;75145;49.188;8.122;2024-01-07T11:51:10;99895.25;;;3.67;76.18
84884;BME280;75145;49.188;8.122;2024-01-07T11:53:36;99906.88;;;3.62;76.42
84884;BME280;75145;49.188;8.122;2024-01-07T11:56:01;99904.75;;;3.70;76.27
84884;BME280;75145;49.188;8.122;2024-01-07T11:58:26;99902.91;;;3.72;76.53
84884;BME280;75145;49.188;8.122;2024-01-07T12:00:52;99908.72;;;3.77;75.85
84884;BME280;75145;49.188;8.122;2024-01-07T12:03:17;99908.56;;;3.63;76.09
84884;BME280;75145;49.188;8.122;2024-01-07T12:05:42;99906.13;;;3.60;75.81
84884;BME280;75145;49.188;8.122;2024-01-07T12:08:08;99912.03;;;3.63;76.34
84884;BME280;75145;49.188;8.122;2024-01-07T12:10:34;99909.34;;;3.65;76.57
84884;BME280;75145;49.188;8.122;2024-01-07T12:12:59;99901.66;;;3.62;76.94
84884;BME280;75145;49.188;8.122;2024-01-07T12:15:25;99910.41;;;3.61;76.39
84884;BME280;75145;49.188;8.122;2024-01-07T12:17:57;99913.97;;;3.60;76.16
84884;BME280;75145;49.188;8.122;2024-01-07T12:20:23;99906.56;;;3.50;75.75
84884;BME280;75145;49.188;8.122;2024-01-07T12:22:48;99915.41;;;3.48;75.76
84884;BME280;75145;49.188;8.122;2024-01-07T12:25:21;99916.84;;;3.36;76.02
84884;BME280;75145;49.188;8.122;2024-01-07T12:27:47;99921.00;;;3.40;75.35
84884;BME280;75145;49.188;8.122;2024-01-07T12:30:17;99921.63;;;3.45;75.91
84884;BME280;75145;49.188;8.122;2024-01-07T12:32:43;99920.78;;;3.45;75.97
84884;BME280;75145;49.188;8.122;2024-01-07T12:35:10;99919.63;;;3.50;76.11
84884;BME280;75145;49.188;8.122;2024-01-07T12:37:37;99925.44;;;3.57;75.40
84884;BME280;75145;49.188;8.122;2024-01-07T12:40:02;99912.78;;;3.48;75.65
84884;BME280;75145;49.188;8.122;2024-01-07T12:42:27;99920.88;;;3.61;75.34
84884;BME280;75145;49.188;8.122;2024-01-07T12:44:53;99928.56;;;3.46;75.88
84884;BME280;75145;49.188;8.122;2024-01-07T12:47:19;99907.81;;;3.43;76.12
84884;BME280;75145;49.188;8.122;2024-01-07T12:49:44;99915.78;;;3.40;75.95
84884;BME280;75145;49.188;8.122;2024-01-07T12:52:10;99927.84;;;3.43;75.71
84884;BME280;75145;49.188;8.122;2024-01-07T12:54:36;99927.31;;;3.36;75.27
84884;BME280;75145;49.188;8.122;2024-01-07T12:57:02;99917.59;;;3.21;75.70
84884;BME280;75145;49.188;8.122;2024-01-07T12:59:27;99911.72;;;3.16;75.97
84884;BME280;75145;49.188;8.122;2024-01-07T13:01:53;99943.25;;;3.30;75.12
84884;BME280;75145;49.188;8.122;2024-01-07T13:04:19;99946.94;;;3.26;75.70
84884;BME280;75145;49.188;8.122;2024-01-07T13:06:45;99928.19;;;3.18;75.45
84884;BME280;75145;49.188;8.122;2024-01-07T13:09:11;99939.50;;;3.18;75.43
84884;BME280;75145;49.188;8.122;2024-01-07T13:11:36;99947.38;;;3.17;75.90
84884;BME280;75145;49.188;8.122;2024-01-07T13:14:01;99949.03;;;3.19;76.06